createdAt,value
2023-03-08T00:01:22.313Z,94.43
2023-03-08T00:03:53.465Z,90.88
2023-03-08T00:06:20.671Z,90.32
2023-03-08T00:08:48.484Z,90.07
2023-03-08T00:11:15.798Z,90.15
2023-03-08T00:13:42.435Z,91.28
2023-03-08T00:16:11.897Z,90.60
2023-03-08T00:18:38.758Z,96.75
2023-03-08T00:21:08.711Z,91.07
2023-03-08T00:23:35.593Z,90.85
2023-03-08T00:26:02.629Z,91.63
2023-03-08T00:28:30.080Z,91.68
2023-03-08T00:31:05.128Z,91.82
2023-03-08T00:33:33.112Z,91.05
2023-03-08T00:36:14.958Z,91.03
2023-03-08T00:38:41.658Z,90.57
2023-03-08T00:41:08.451Z,91.63
2023-03-08T00:43:35.408Z,91.18
2023-03-08T00:46:02.079Z,90.95
2023-03-08T00:48:28.754Z,91.55
2023-03-08T00:50:55.538Z,91.05
2023-03-08T00:53:22.253Z,91.15
2023-03-08T00:55:51.405Z,90.28
2023-03-08T00:58:18.723Z,90.88
2023-03-08T01:00:45.799Z,91.30
2023-03-08T01:03:12.579Z,91.53
2023-03-08T01:05:40.738Z,91.68
2023-03-08T01:08:07.425Z,91.43
2023-03-08T01:10:34.877Z,92.45
2023-03-08T01:13:01.761Z,91.03
2023-03-08T01:15:28.502Z,91.43
2023-03-08T01:17:55.155Z,92.20
2023-03-08T01:20:21.832Z,91.53
2023-03-08T01:22:48.542Z,91.53
2023-03-08T01:25:16.299Z,93.47
2023-03-08T01:27:42.996Z,91.57
2023-03-08T01:30:10.418Z,93.15
2023-03-08T01:32:37.139Z,90.97
2023-03-08T01:35:05.392Z,91.20
2023-03-08T01:37:33.188Z,90.93
2023-03-08T01:40:00.629Z,92.97
2023-03-08T01:42:28.230Z,92.22
2023-03-08T01:45:04.497Z,92.32
2023-03-08T01:47:35.955Z,91.38
2023-03-08T01:50:10.653Z,91.57
2023-03-08T01:52:46.787Z,91.80
2023-03-08T01:55:14.956Z,93.13
2023-03-08T01:57:49.316Z,92.53
2023-03-08T02:00:19.706Z,91.65
2023-03-08T02:03:02.467Z,92.15
2023-03-08T02:05:30.812Z,92.63
2023-03-08T02:07:57.482Z,91.13
2023-03-08T02:10:24.328Z,92.65
2023-03-08T02:12:51.745Z,91.72
2023-03-08T02:15:20.233Z,93.47
2023-03-08T02:17:47.105Z,91.57
2023-03-08T02:20:34.149Z,92.45
2023-03-08T02:23:15.712Z,93.10
2023-03-08T02:26:04.591Z,91.68
2023-03-08T02:28:32.644Z,92.07
2023-03-08T02:30:59.384Z,94.47
2023-03-08T02:33:26.195Z,92.38
2023-03-08T02:35:53.341Z,92.38
2023-03-08T02:38:21.529Z,94.53
2023-03-08T02:40:51.364Z,93.10
2023-03-08T02:43:18.982Z,92.20
2023-03-08T02:45:46.223Z,92.93
2023-03-08T02:48:13.248Z,93.28
2023-03-08T02:50:39.868Z,91.53
2023-03-08T02:53:06.976Z,92.22
2023-03-08T02:55:37.123Z,95.13
2023-03-08T02:58:05.560Z,92.53
2023-03-08T03:00:33.638Z,92.97
2023-03-08T03:03:00.305Z,92.75
2023-03-08T03:05:26.936Z,92.32
2023-03-08T03:07:55.355Z,93.15
2023-03-08T03:10:22.051Z,95.22
2023-03-08T03:12:48.685Z,93.63
2023-03-08T03:15:15.292Z,98.60
2023-03-08T03:17:41.947Z,96.07
2023-03-08T03:20:10.004Z,92.95
2023-03-08T03:22:37.309Z,99.10
2023-03-08T03:25:04.967Z,93.43
2023-03-08T03:27:31.620Z,93.57
2023-03-08T03:29:58.232Z,93.43
2023-03-08T03:32:24.871Z,96.32
2023-03-08T03:34:52.348Z,97.93
2023-03-08T03:37:18.956Z,99.85
2023-03-08T03:39:45.591Z,101.70
2023-03-08T03:42:12.229Z,102.68
2023-03-08T03:44:38.965Z,101.85
2023-03-08T03:47:05.986Z,103.90
2023-03-08T03:49:32.728Z,101.45
2023-03-08T03:51:59.659Z,105.50
2023-03-08T03:54:26.843Z,102.63
2023-03-08T03:56:55.428Z,102.05
2023-03-08T03:59:22.075Z,103.50
2023-03-08T04:01:48.704Z,105.40
2023-03-08T04:04:15.373Z,100.55
2023-03-08T04:06:42.428Z,102.30
2023-03-08T04:09:14.145Z,100.93
2023-03-08T04:11:40.983Z,102.47
2023-03-08T04:14:07.882Z,98.97
2023-03-08T04:16:36.833Z,101.70
2023-03-08T04:19:06.837Z,103.35
2023-03-08T04:21:33.799Z,102.32
2023-03-08T04:24:01.013Z,103.35
2023-03-08T04:26:28.147Z,102.97
2023-03-08T04:28:54.930Z,104.75
2023-03-08T04:31:24.616Z,105.13
2023-03-08T04:33:52.100Z,103.60
2023-03-08T04:36:19.480Z,101.95
2023-03-08T04:38:47.257Z,99.88
2023-03-08T04:41:14.473Z,100.32
2023-03-08T04:43:46.213Z,100.80
2023-03-08T04:46:13.888Z,101.90
2023-03-08T04:48:41.114Z,101.53
2023-03-08T04:51:08.689Z,100.30
2023-03-08T04:53:36.246Z,103.20
2023-03-08T04:56:03.395Z,104.95
2023-03-08T04:58:30.850Z,103.43
2023-03-08T05:00:57.556Z,101.03
2023-03-08T05:03:24.216Z,100.95
2023-03-08T05:05:53.734Z,101.43
2023-03-08T05:08:21.455Z,101.38
2023-03-08T05:11:00.492Z,101.25
2023-03-08T05:13:29.819Z,101.28
2023-03-08T05:15:56.851Z,99.28
2023-03-08T05:18:23.600Z,101.05
2023-03-08T05:20:58.005Z,108.28
2023-03-08T05:23:28.491Z,100.78
2023-03-08T05:25:57.016Z,103.60
2023-03-08T05:28:25.363Z,105.32
2023-03-08T05:31:01.903Z,109.10
2023-03-08T05:33:28.765Z,102.05
2023-03-08T05:35:55.488Z,97.90
2023-03-08T05:38:22.992Z,102.80
2023-03-08T05:40:50.670Z,102.53
2023-03-08T05:43:18.575Z,103.05
2023-03-08T05:45:59.182Z,101.20
2023-03-08T05:48:26.241Z,98.22
2023-03-08T05:50:53.452Z,100.60
2023-03-08T05:53:21.188Z,98.70
2023-03-08T05:55:48.034Z,103.53
2023-03-08T05:58:15.300Z,101.97
2023-03-08T06:00:42.006Z,102.68
2023-03-08T06:03:08.691Z,102.55
2023-03-08T06:05:35.406Z,99.78
2023-03-08T06:08:02.148Z,105.13
2023-03-08T06:10:28.800Z,100.30
2023-03-08T06:12:55.407Z,103.55
2023-03-08T06:15:23.115Z,103.70
2023-03-08T06:17:53.675Z,101.40
2023-03-08T06:20:20.452Z,102.50
2023-03-08T06:22:47.126Z,103.88
2023-03-08T06:25:13.753Z,100.78
2023-03-08T06:27:40.349Z,99.20
2023-03-08T06:30:07.355Z,103.63
2023-03-08T06:32:35.585Z,104.47
2023-03-08T06:35:02.376Z,100.63
2023-03-08T06:37:33.115Z,102.90
2023-03-08T06:40:00.638Z,99.78
2023-03-08T06:42:40.293Z,102.18
2023-03-08T06:45:09.158Z,103.15
2023-03-08T06:47:35.777Z,106.95
2023-03-08T06:50:02.510Z,103.55
2023-03-08T06:52:34.839Z,100.65
2023-03-08T06:55:01.468Z,102.45
2023-03-08T06:57:28.082Z,103.75
2023-03-08T06:59:54.747Z,103.55
2023-03-08T07:02:21.407Z,105.70
2023-03-08T07:04:49.610Z,102.38
2023-03-08T07:07:16.475Z,103.78
2023-03-08T07:09:43.223Z,101.40
2023-03-08T07:12:09.906Z,105.95
2023-03-08T07:14:36.607Z,106.20
2023-03-08T07:17:03.244Z,103.00
2023-03-08T07:19:31.258Z,107.63
2023-03-08T07:21:57.887Z,106.47
2023-03-08T07:24:24.484Z,107.07
2023-03-08T07:26:51.119Z,105.40
2023-03-08T07:29:17.748Z,103.25
2023-03-08T07:31:44.424Z,108.47
2023-03-08T07:34:11.843Z,103.65
2023-03-08T07:36:40.046Z,102.05
2023-03-08T07:39:06.826Z,103.07
2023-03-08T07:41:34.683Z,106.70
2023-03-08T07:44:02.380Z,112.15
2023-03-08T07:46:29.355Z,106.28
2023-03-08T07:48:56.060Z,106.63
2023-03-08T07:51:23.084Z,106.15
2023-03-08T07:53:51.032Z,101.55
2023-03-08T07:56:17.786Z,104.82
2023-03-08T07:58:44.479Z,104.18
2023-03-08T08:01:12.431Z,107.90
2023-03-08T08:03:39.828Z,104.45
2023-03-08T08:06:07.597Z,102.68
2023-03-08T08:08:34.323Z,106.70
2023-03-08T08:11:01.242Z,108.18
2023-03-08T08:13:27.883Z,103.90
2023-03-08T08:15:59.784Z,105.63
2023-03-08T08:18:26.763Z,105.32
2023-03-08T08:21:03.881Z,104.25
2023-03-08T08:23:30.925Z,105.47
2023-03-08T08:25:57.805Z,104.18
2023-03-08T08:28:26.529Z,107.70
2023-03-08T08:31:05.424Z,112.22
2023-03-08T08:33:33.026Z,103.97
2023-03-08T08:36:00.368Z,111.72
2023-03-08T08:38:27.215Z,112.15
2023-03-08T08:40:53.931Z,101.15
2023-03-08T08:43:20.565Z,105.72
2023-03-08T08:45:53.257Z,103.47
2023-03-08T08:48:19.940Z,105.05
2023-03-08T08:50:46.591Z,110.05
2023-03-08T08:53:13.697Z,106.82
2023-03-08T08:55:41.920Z,106.47
2023-03-08T08:58:09.551Z,105.70
2023-03-08T09:00:36.454Z,108.78
2023-03-08T09:03:04.899Z,110.75
2023-03-08T09:05:32.650Z,108.68
2023-03-08T09:08:01.305Z,104.38
2023-03-08T09:10:29.720Z,109.40
2023-03-08T09:12:59.002Z,107.95
2023-03-08T09:15:26.567Z,108.13
2023-03-08T09:17:53.810Z,109.45
2023-03-08T09:20:22.948Z,112.50
2023-03-08T09:22:50.358Z,113.00
2023-03-08T09:25:19.489Z,111.18
2023-03-08T09:27:46.332Z,113.20
2023-03-08T09:30:15.119Z,111.10
2023-03-08T09:32:41.975Z,110.68
2023-03-08T09:35:09.543Z,117.10
2023-03-08T09:37:38.029Z,116.45
2023-03-08T09:40:09.472Z,111.65
2023-03-08T09:42:38.212Z,109.93
2023-03-08T09:45:21.576Z,114.43
2023-03-08T09:48:13.220Z,111.45
2023-03-08T09:50:48.799Z,117.50
2023-03-08T09:53:33.805Z,109.72
2023-03-08T09:56:11.812Z,114.80
2023-03-08T09:58:47.367Z,112.07
2023-03-08T10:01:24.957Z,110.22
2023-03-08T10:04:12.651Z,111.88
2023-03-08T10:06:54.608Z,111.38
2023-03-08T10:09:31.808Z,111.95
2023-03-08T10:12:29.358Z,109.32
2023-03-08T10:15:05.245Z,110.15
2023-03-08T10:17:45.005Z,110.05
2023-03-08T10:20:37.907Z,111.90
2023-03-08T10:23:20.648Z,111.75
2023-03-08T10:25:49.172Z,113.97
2023-03-08T10:28:21.300Z,114.85
2023-03-08T10:30:54.529Z,108.07
2023-03-08T10:33:26.746Z,109.07
2023-03-08T10:35:58.762Z,113.60
2023-03-08T10:38:31.398Z,110.80
2023-03-08T10:41:16.088Z,110.10
2023-03-08T10:43:52.026Z,109.88
2023-03-08T10:46:30.306Z,105.90
2023-03-08T10:49:08.006Z,110.22
2023-03-08T10:51:34.753Z,106.97
2023-03-08T10:54:04.575Z,102.85
2023-03-08T10:56:44.737Z,110.25
2023-03-08T10:59:21.309Z,106.70
2023-03-08T11:01:53.646Z,110.00
2023-03-08T11:04:23.544Z,107.32
2023-03-08T11:06:50.824Z,112.18
2023-03-08T11:09:26.595Z,106.68
2023-03-08T11:11:57.234Z,108.72
2023-03-08T11:14:25.300Z,112.38
2023-03-08T11:17:27.565Z,106.70
2023-03-08T11:20:24.831Z,106.35
2023-03-08T11:23:15.583Z,109.18
2023-03-08T11:25:45.507Z,105.97
2023-03-08T11:28:27.257Z,106.22
2023-03-08T11:31:13.241Z,107.47
2023-03-08T11:33:51.150Z,103.70
2023-03-08T11:36:47.723Z,107.22
2023-03-08T11:39:34.567Z,104.72
2023-03-08T11:42:22.332Z,104.35
2023-03-08T11:45:19.077Z,107.70
2023-03-08T11:47:45.912Z,106.78
2023-03-08T11:50:33.613Z,106.72
2023-03-08T11:53:18.356Z,111.22
2023-03-08T11:55:52.595Z,104.07
2023-03-08T11:58:20.362Z,107.25
2023-03-08T12:00:49.966Z,105.50
2023-03-08T12:03:32.811Z,108.25
2023-03-08T12:06:40.646Z,105.38
2023-03-08T12:09:23.003Z,103.85
2023-03-08T12:12:19.746Z,109.63
2023-03-08T12:14:57.646Z,107.90
2023-03-08T12:17:28.770Z,106.18
2023-03-08T12:19:55.489Z,108.95
2023-03-08T12:22:45.956Z,107.20
2023-03-08T12:25:24.714Z,109.47
2023-03-08T12:28:09.726Z,107.07
2023-03-08T12:31:27.293Z,107.38
2023-03-08T12:33:56.763Z,110.50
2023-03-08T12:36:37.133Z,108.03
2023-03-08T12:39:26.820Z,108.55
2023-03-08T12:42:16.587Z,109.03
2023-03-08T12:44:43.991Z,112.85
2023-03-08T12:47:13.615Z,105.53
2023-03-08T12:49:50.559Z,108.55
2023-03-08T12:52:20.283Z,109.28
2023-03-08T12:54:59.270Z,105.60
2023-03-08T12:57:31.037Z,110.63
2023-03-08T13:00:25.427Z,109.05
2023-03-08T13:03:24.521Z,106.35
2023-03-08T13:05:52.162Z,107.70
2023-03-08T13:08:47.131Z,108.82
2023-03-08T13:11:16.716Z,115.25
2023-03-08T13:13:50.721Z,109.65
2023-03-08T13:16:26.231Z,108.65
2023-03-08T13:19:21.690Z,105.18
2023-03-08T13:22:19.954Z,107.00
2023-03-08T13:25:17.484Z,111.18
2023-03-08T13:28:00.639Z,106.18
2023-03-08T13:31:06.224Z,109.72
2023-03-08T13:33:48.380Z,105.63
2023-03-08T13:36:15.018Z,104.43
2023-03-08T13:38:41.796Z,105.55
2023-03-08T13:41:08.456Z,104.20
2023-03-08T13:43:36.007Z,106.70
2023-03-08T13:46:10.609Z,106.45
2023-03-08T13:48:37.683Z,108.35
2023-03-08T13:51:04.582Z,112.15
2023-03-08T13:53:36.100Z,102.60
2023-03-08T13:56:04.970Z,107.13
2023-03-08T13:58:38.187Z,106.55
2023-03-08T14:01:15.081Z,113.13
2023-03-08T14:03:43.755Z,108.13
2023-03-08T14:06:38.025Z,109.90
2023-03-08T14:09:05.786Z,104.15
2023-03-08T14:11:35.988Z,108.45
2023-03-08T14:14:06.998Z,105.88
2023-03-08T14:16:37.040Z,107.28
2023-03-08T14:19:14.369Z,106.93
2023-03-08T14:21:50.119Z,111.38
2023-03-08T14:24:25.342Z,108.65
2023-03-08T14:27:18.424Z,106.63
2023-03-08T14:29:45.948Z,106.63
2023-03-08T14:32:13.130Z,105.97
2023-03-08T14:34:42.831Z,108.50
2023-03-08T14:37:23.370Z,108.43
2023-03-08T14:39:53.982Z,110.45
2023-03-08T14:42:43.190Z,108.88
2023-03-08T14:45:23.811Z,108.13
2023-03-08T14:47:59.192Z,109.47
2023-03-08T14:50:31.478Z,109.22
2023-03-08T14:53:00.678Z,113.93
2023-03-08T14:55:38.566Z,114.38
2023-03-08T14:58:12.938Z,109.82
2023-03-08T15:00:54.796Z,110.97
2023-03-08T15:03:21.468Z,110.72
2023-03-08T15:05:48.490Z,108.93
2023-03-08T15:08:17.448Z,114.90
2023-03-08T15:10:44.704Z,106.60
2023-03-08T15:13:17.777Z,108.82
2023-03-08T15:15:45.066Z,113.13
2023-03-08T15:18:12.004Z,110.65
2023-03-08T15:20:44.589Z,111.47
2023-03-08T15:23:17.874Z,108.00
2023-03-08T15:25:44.712Z,121.45
2023-03-08T15:28:15.385Z,112.55
2023-03-08T15:30:42.495Z,108.80
2023-03-08T15:33:09.801Z,108.47
2023-03-08T15:35:38.268Z,107.25
2023-03-08T15:38:05.007Z,106.00
2023-03-08T15:40:33.364Z,105.57
2023-03-08T15:43:00.970Z,118.95
2023-03-08T15:45:28.688Z,110.53
2023-03-08T15:47:59.607Z,112.35
2023-03-08T15:50:27.635Z,109.28
2023-03-08T15:52:55.561Z,114.68
2023-03-08T15:55:24.467Z,107.05
2023-03-08T15:57:51.210Z,111.40
2023-03-08T16:00:19.792Z,113.07
2023-03-08T16:02:47.347Z,109.90
2023-03-08T16:05:15.143Z,114.50
2023-03-08T16:07:42.865Z,113.85
2023-03-08T16:10:13.219Z,112.72
2023-03-08T16:12:40.958Z,108.80
2023-03-08T16:15:08.264Z,111.97
2023-03-08T16:17:35.046Z,111.80
2023-03-08T16:20:03.486Z,108.90
2023-03-08T16:22:30.132Z,112.82
2023-03-08T16:24:56.820Z,108.68
2023-03-08T16:27:23.478Z,107.95
2023-03-08T16:29:52.160Z,114.15
2023-03-08T16:32:19.590Z,109.93
2023-03-08T16:34:50.818Z,110.32
2023-03-08T16:37:21.103Z,112.28
2023-03-08T16:39:51.626Z,108.00
2023-03-08T16:42:19.292Z,110.72
2023-03-08T16:44:52.533Z,114.78
2023-03-08T16:47:20.614Z,109.68
2023-03-08T16:49:47.448Z,110.43
2023-03-08T16:52:15.961Z,111.50
2023-03-08T16:54:43.153Z,110.15
2023-03-08T16:57:19.146Z,112.18
2023-03-08T16:59:47.703Z,109.68
2023-03-08T17:02:17.144Z,109.38
2023-03-08T17:04:44.296Z,112.35
2023-03-08T17:07:11.476Z,111.60
2023-03-08T17:09:38.623Z,109.00
2023-03-08T17:12:06.156Z,112.22
2023-03-08T17:14:34.786Z,111.75
2023-03-08T17:17:01.877Z,110.85
2023-03-08T17:19:28.590Z,112.80
2023-03-08T17:21:55.718Z,118.38
2023-03-08T17:24:22.579Z,115.32
2023-03-08T17:26:52.681Z,113.40
2023-03-08T17:29:19.865Z,110.78
2023-03-08T17:31:46.829Z,112.95
2023-03-08T17:34:13.720Z,114.75
2023-03-08T17:36:40.643Z,112.72
2023-03-08T17:39:07.647Z,116.40
2023-03-08T17:41:34.401Z,114.25
2023-03-08T17:44:01.234Z,109.93
2023-03-08T17:46:28.228Z,114.32
2023-03-08T17:48:55.890Z,110.88
2023-03-08T17:51:25.352Z,113.40
2023-03-08T17:53:53.343Z,107.28
2023-03-08T17:56:24.928Z,110.20
2023-03-08T17:58:52.183Z,104.10
2023-03-08T18:01:24.602Z,109.13
2023-03-08T18:03:52.421Z,107.18
2023-03-08T18:06:33.566Z,110.65
2023-03-08T18:09:03.318Z,111.22
2023-03-08T18:11:30.056Z,107.72
2023-03-08T18:13:57.069Z,107.25
2023-03-08T18:16:24.594Z,104.70
2023-03-08T18:18:51.719Z,109.32
2023-03-08T18:21:19.684Z,111.20
2023-03-08T18:23:46.906Z,106.97
2023-03-08T18:26:15.618Z,111.50
2023-03-08T18:28:42.297Z,106.80
2023-03-08T18:31:11.824Z,107.45
2023-03-08T18:33:39.266Z,117.68
2023-03-08T18:36:06.328Z,107.13
2023-03-08T18:38:33.039Z,114.20
2023-03-08T18:40:59.705Z,112.28
2023-03-08T18:43:26.382Z,112.18
2023-03-08T18:45:54.951Z,112.35
2023-03-08T18:48:23.201Z,116.35
2023-03-08T18:50:49.973Z,113.47
2023-03-08T18:53:16.782Z,116.28
2023-03-08T18:55:54.317Z,111.20
2023-03-08T18:58:21.880Z,115.90
2023-03-08T19:00:48.801Z,111.47
2023-03-08T19:03:15.466Z,116.97
2023-03-08T19:05:42.313Z,112.10
2023-03-08T19:08:09.164Z,111.78
2023-03-08T19:10:35.870Z,114.28
2023-03-08T19:13:02.627Z,113.75
2023-03-08T19:15:29.457Z,120.15
2023-03-08T19:17:57.878Z,124.05
2023-03-08T19:20:26.489Z,116.93
2023-03-08T19:22:53.440Z,116.55
2023-03-08T19:25:20.223Z,114.90
2023-03-08T19:27:46.977Z,120.03
2023-03-08T19:30:13.857Z,113.57
2023-03-08T19:32:42.614Z,116.47
2023-03-08T19:35:09.831Z,109.43
2023-03-08T19:37:36.521Z,111.30
2023-03-08T19:40:04.748Z,111.93
2023-03-08T19:42:31.395Z,111.38
2023-03-08T19:44:58.079Z,115.57
2023-03-08T19:47:24.737Z,117.43
2023-03-08T19:49:51.830Z,112.85
2023-03-08T19:52:18.607Z,113.80
2023-03-08T19:54:46.173Z,111.75
2023-03-08T19:57:13.476Z,115.97
2023-03-08T19:59:40.204Z,118.32
2023-03-08T20:02:08.826Z,115.15
2023-03-08T20:04:36.548Z,115.45
2023-03-08T20:07:04.819Z,117.90
2023-03-08T20:09:31.560Z,113.13
2023-03-08T20:11:59.167Z,111.85
2023-03-08T20:14:27.217Z,115.35
2023-03-08T20:16:54.566Z,106.47
2023-03-08T20:19:21.398Z,110.95
2023-03-08T20:21:48.248Z,114.60
2023-03-08T20:24:18.118Z,112.07
2023-03-08T20:26:45.679Z,107.40
2023-03-08T20:29:12.438Z,105.13
2023-03-08T20:31:39.203Z,105.03
2023-03-08T20:34:05.990Z,102.60
2023-03-08T20:36:32.809Z,99.55
2023-03-08T20:38:59.645Z,103.75
2023-03-08T20:41:26.528Z,97.80
2023-03-08T20:43:57.406Z,98.15
2023-03-08T20:46:27.453Z,98.50
2023-03-08T20:48:54.186Z,98.50
2023-03-08T20:51:21.908Z,96.40
2023-03-08T20:53:50.895Z,98.45
2023-03-08T20:56:19.286Z,97.43
2023-03-08T20:58:47.022Z,94.47
2023-03-08T21:01:28.738Z,96.75
2023-03-08T21:03:55.454Z,94.53
2023-03-08T21:06:28.533Z,93.57
2023-03-08T21:08:55.633Z,95.07
2023-03-08T21:11:22.784Z,93.72
2023-03-08T21:13:50.987Z,94.43
2023-03-08T21:16:19.811Z,94.88
2023-03-08T21:18:55.054Z,92.93
2023-03-08T21:21:27.215Z,95.18
2023-03-08T21:23:58.550Z,95.45
2023-03-08T21:26:26.391Z,93.72
2023-03-08T21:28:55.401Z,93.47
2023-03-08T21:31:23.339Z,92.55
2023-03-08T21:33:50.412Z,94.50
2023-03-08T21:36:17.333Z,92.47
2023-03-08T21:38:44.042Z,93.65
2023-03-08T21:41:22.378Z,93.28
2023-03-08T21:43:49.113Z,92.63
2023-03-08T21:46:16.730Z,93.53
2023-03-08T21:48:43.754Z,93.15
2023-03-08T21:51:11.103Z,92.05
2023-03-08T21:53:38.284Z,92.15
2023-03-08T21:56:10.186Z,91.90
2023-03-08T21:58:37.750Z,92.05
2023-03-08T22:01:05.352Z,92.30
2023-03-08T22:03:33.335Z,91.43
2023-03-08T22:06:00.827Z,91.88
2023-03-08T22:08:27.740Z,92.13
2023-03-08T22:10:54.952Z,91.07
2023-03-08T22:13:22.017Z,92.55
2023-03-08T22:15:48.708Z,92.15
2023-03-08T22:18:15.361Z,91.90
2023-03-08T22:20:42.929Z,92.93
2023-03-08T22:23:09.782Z,92.22
2023-03-08T22:25:36.401Z,92.80
2023-03-08T22:28:03.094Z,91.75
2023-03-08T22:30:29.757Z,92.38
2023-03-08T22:32:56.380Z,91.28
2023-03-08T22:35:23.013Z,91.88
2023-03-08T22:37:50.221Z,92.97
2023-03-08T22:40:18.903Z,93.07
2023-03-08T22:42:46.620Z,95.15
2023-03-08T22:45:14.163Z,91.60
2023-03-08T22:47:41.218Z,91.53
2023-03-08T22:50:08.699Z,92.43
2023-03-08T22:52:35.398Z,91.82
2023-03-08T22:55:02.161Z,92.45
2023-03-08T22:57:28.824Z,94.18
2023-03-08T22:59:56.654Z,90.93
2023-03-08T23:02:23.809Z,92.28
2023-03-08T23:04:50.577Z,92.72
2023-03-08T23:07:17.336Z,94.85
2023-03-08T23:09:43.963Z,92.85
2023-03-08T23:12:10.583Z,96.13
2023-03-08T23:14:37.193Z,96.07
2023-03-08T23:17:03.825Z,95.68
2023-03-08T23:19:30.597Z,94.07
2023-03-08T23:21:57.770Z,93.88
2023-03-08T23:24:24.434Z,97.40
2023-03-08T23:26:51.142Z,92.32
2023-03-08T23:29:17.806Z,94.70
2023-03-08T23:31:45.860Z,93.07
2023-03-08T23:34:12.701Z,94.38
2023-03-08T23:36:39.507Z,95.20
2023-03-08T23:39:06.410Z,94.93
2023-03-08T23:41:33.190Z,92.97
2023-03-08T23:44:00.988Z,95.13
2023-03-08T23:46:28.965Z,92.95
2023-03-08T23:48:57.833Z,100.88
2023-03-08T23:51:27.511Z,95.47
2023-03-08T23:53:56.941Z,92.95
2023-03-08T23:56:30.482Z,93.72
2023-03-08T23:59:01.260Z,94.03
